Time,TemperatureF,DewpointF,PressureIn,WindDirection,WindDirectionDegrees,WindSpeedMPH,WindSpeedGustMPH,Humidity,HourlyPrecipIn,Conditions,Clouds,dailyrainin,SoftwareType,DateUTC
2013-08-23 00:24:00,76.0,74.0,29.99,SE,128,0.0,0.0,94,0.00,,,0.50,,2013-08-23 04:24:00,
2013-08-23 00:43:00,76.0,74.0,29.98,SE,128,0.0,0.0,94,0.00,,,0.50,,2013-08-23 04:43:00,
2013-08-23 00:54:00,76.0,74.0,29.98,SE,128,0.0,0.0,94,0.00,,,0.50,,2013-08-23 04:54:00,
2013-08-23 01:22:00,76.0,74.0,29.96,SE,128,0.0,0.0,94,0.00,,,0.50,,2013-08-23 05:22:00,
2013-08-23 01:53:00,76.0,74.0,29.96,SE,128,0.0,0.0,94,0.00,,,0.50,,2013-08-23 05:53:00,
2013-08-23 02:22:00,76.0,74.0,29.96,SE,128,0.0,0.0,94,0.00,,,0.50,,2013-08-23 06:22:00,
2013-08-23 02:42:00,76.0,74.0,29.95,SE,128,0.0,0.0,94,0.00,,,0.50,,2013-08-23 06:42:00,
2013-08-23 02:52:00,76.0,74.0,29.94,SE,128,0.0,0.0,94,0.00,,,0.50,,2013-08-23 06:52:00,
2013-08-23 03:22:00,76.0,74.0,29.94,SE,128,0.0,0.0,94,0.00,,,0.50,,2013-08-23 07:22:00,
2013-08-23 03:53:00,76.0,74.0,29.93,SE,128,0.0,0.0,94,0.00,,,0.50,,2013-08-23 07:53:00,
2013-08-23 04:22:00,76.0,74.0,29.93,SE,128,0.0,0.0,95,0.00,,,0.50,,2013-08-23 08:22:00,
2013-08-23 04:52:00,77.0,75.0,29.93,SE,128,0.0,0.0,95,0.00,,,0.50,,2013-08-23 08:52:00,
2013-08-23 05:21:00,77.0,75.0,29.93,SE,128,0.0,0.0,95,0.00,,,0.50,,2013-08-23 09:21:00,
2013-08-23 05:53:00,77.0,75.0,29.93,SE,128,0.0,0.0,95,0.00,,,0.50,,2013-08-23 09:53:00,
2013-08-23 06:23:00,77.0,75.0,29.93,SE,128,0.0,0.0,95,0.01,,,0.51,,2013-08-23 10:23:00,
2013-08-23 06:53:00,77.0,75.0,29.93,SE,128,0.0,0.0,95,0.01,,,0.51,,2013-08-23 10:53:00,
2013-08-23 07:22:00,76.0,74.0,29.93,SE,128,0.0,0.0,95,0.00,,,0.51,,2013-08-23 11:22:00,
2013-08-23 07:53:00,77.0,75.0,29.95,SE,128,0.0,0.0,95,0.00,,,0.51,,2013-08-23 11:53:00,
2013-08-23 08:11:00,77.0,75.0,29.95,SE,128,0.0,0.0,95,0.00,,,0.51,,2013-08-23 12:11:00,
2013-08-23 08:22:00,77.0,75.0,29.95,NE,49,0.0,0.0,95,0.00,,,0.51,,2013-08-23 12:22:00,
2013-08-23 08:42:00,78.0,76.0,29.96,NE,46,0.0,3.0,95,0.00,,,0.51,,2013-08-23 12:42:00,
2013-08-23 08:52:00,79.0,77.0,29.96,ESE,116,0.0,3.0,95,0.00,,,0.51,,2013-08-23 12:52:00,
2013-08-23 09:22:00,80.0,78.0,29.96,ENE,74,1.0,5.0,94,0.00,,,0.51,,2013-08-23 13:22:00,
2013-08-23 09:53:00,81.0,78.0,29.96,SSE,147,3.0,5.0,90,0.00,,,0.51,,2013-08-23 13:53:00,
2013-08-23 10:12:00,82.0,78.0,29.96,ESE,105,2.0,8.0,89,0.00,,,0.51,,2013-08-23 14:12:00,
2013-08-23 10:22:00,84.0,79.0,29.97,SSW,205,3.0,7.0,85,0.00,,,0.51,,2013-08-23 14:22:00,
2013-08-23 10:52:00,85.0,79.0,29.98,SE,144,2.0,8.0,82,0.00,,,0.51,,2013-08-23 14:52:00,
2013-08-23 11:22:00,86.0,78.0,29.98,East,82,2.0,5.0,78,0.00,,,0.51,,2013-08-23 15:22:00,
2013-08-23 11:54:00,88.0,78.0,29.98,ESE,123,2.0,3.0,72,0.00,,,0.51,,2013-08-23 15:54:00,
2013-08-23 12:13:00,88.0,79.0,29.98,NE,51,2.0,6.0,74,0.00,,,0.51,,2013-08-23 16:13:00,
2013-08-23 12:24:00,88.0,78.0,29.97,SE,130,2.0,8.0,72,0.00,,,0.51,,2013-08-23 16:24:00,
2013-08-23 12:53:00,89.0,77.0,29.97,ESE,109,2.0,8.0,67,0.00,,,0.51,,2013-08-23 16:53:00,
2013-08-23 13:24:00,90.0,77.0,29.97,NNE,22,2.0,7.0,65,0.00,,,0.51,,2013-08-23 17:24:00,
2013-08-23 13:54:00,89.0,77.0,29.96,ESE,114,1.0,4.0,67,0.00,,,0.51,,2013-08-23 17:54:00,
2013-08-23 14:22:00,91.0,76.0,29.95,SE,134,0.0,7.0,62,0.00,,,0.51,,2013-08-23 18:22:00,
2013-08-23 14:52:00,92.0,76.0,29.93,NNW,344,0.0,7.0,59,0.00,,,0.51,,2013-08-23 18:52:00,
2013-08-23 15:22:00,93.0,77.0,29.93,NNE,31,2.0,6.0,59,0.00,,,0.51,,2013-08-23 19:22:00,
2013-08-23 15:42:00,91.0,74.0,29.93,North,355,2.0,5.0,58,0.00,,,0.51,,2013-08-23 19:42:00,
2013-08-23 15:52:00,89.0,78.0,29.92,WNW,296,4.0,8.0,70,0.00,,,0.51,,2013-08-23 19:52:00,
2013-08-23 16:12:00,87.0,76.0,29.92,West,276,5.0,11.0,71,0.00,,,0.51,,2013-08-23 20:12:00,
2013-08-23 16:22:00,87.0,76.0,29.92,West,265,6.0,11.0,71,0.00,,,0.31,,2013-08-23 20:22:00,
2013-08-23 16:52:00,84.0,78.0,29.92,WSW,251,4.0,6.0,83,0.02,,,0.33,,2013-08-23 20:52:00,
2013-08-23 17:22:00,79.0,74.0,29.93,WSW,241,4.0,7.0,86,0.09,,,0.21,,2013-08-23 21:22:00,
2013-08-23 17:54:00,79.0,75.0,29.93,SSW,195,1.0,3.0,88,0.07,,,0.21,,2013-08-23 21:54:00,
2013-08-23 18:24:00,81.0,76.0,29.93,South,182,0.0,0.0,85,0.00,,,0.13,,2013-08-23 22:24:00,
2013-08-23 18:53:00,83.0,77.0,29.94,WSW,246,0.0,0.0,81,0.00,,,0.13,,2013-08-23 22:53:00,
2013-08-23 19:22:00,83.0,76.0,29.94,NE,42,4.0,7.0,79,0.00,,,0.13,,2013-08-23 23:22:00,
2013-08-23 19:54:00,82.0,75.0,29.95,NNW,335,2.0,5.0,80,0.00,,,0.13,,2013-08-23 23:54:00,
2013-08-23 20:22:00,81.0,73.0,29.96,ENE,61,10.0,17.0,78,0.00,,,0.12,,2013-08-24 00:22:00,
2013-08-23 20:53:00,79.0,73.0,29.96,ENE,63,2.0,6.0,81,0.00,,,0.12,,2013-08-24 00:53:00,
2013-08-23 21:22:00,78.0,73.0,29.96,East,92,1.0,8.0,85,0.00,,,0.11,,2013-08-24 01:22:00,
2013-08-23 21:42:00,78.0,73.0,29.96,ENE,61,1.0,7.0,86,0.00,,,0.11,,2013-08-24 01:42:00,
2013-08-23 21:53:00,77.0,72.0,29.97,East,82,2.0,6.0,86,0.00,,,0.11,,2013-08-24 01:53:00,
2013-08-23 22:12:00,77.0,73.0,29.98,NNW,348,5.0,8.0,87,0.00,,,0.11,,2013-08-24 02:12:00,
2013-08-23 22:22:00,77.0,73.0,29.98,NNE,23,3.0,10.0,88,0.00,,,0.10,,2013-08-24 02:22:00,
2013-08-23 22:42:00,77.0,74.0,29.98,East,79,2.0,4.0,89,0.00,,,0.10,,2013-08-24 02:42:00,
2013-08-23 22:52:00,77.0,73.0,29.98,ENE,63,0.0,3.0,88,0.00,,,0.10,,2013-08-24 02:52:00,
2013-08-23 23:22:00,77.0,74.0,29.98,NE,34,3.0,6.0,89,0.00,,,0.10,,2013-08-24 03:22:00,
2013-08-23 23:55:00,77.0,74.0,29.98,ESE,110,0.0,0.0,90,0.00,,,0.10,,2013-08-24 03:55:00,